Time;durP1;ratioP1;P1;durP2;ratioP2;P2;SDS_P1;SDS_P2;PMS_P1;PMS_P2;Temp;Humidity;BMP_temperature;BMP_pressure;BME280_temperature;BME280_humidity;BME280_pressure;Samples;Min_cycle;Max_cycle;Signal;HPM_P1;HPM_P2
2022/11/01 00:00:28;;;;;;;9.70;5.57;;;10.60;99.90;;;;;;4228301;28;20295;-70
2022/11/01 00:02:29;;;;;;;8.57;5.60;;;10.60;99.90;;;;;;4244755;27;20184;-72
2022/11/01 00:04:30;;;;;;;11.20;5.90;;;10.60;99.90;;;;;;4230249;27;20226;-70
2022/11/01 00:06:31;;;;;;;9.80;5.87;;;10.60;99.90;;;;;;4245650;27;20194;-74
2022/11/01 00:08:31;;;;;;;10.33;5.70;;;10.50;99.90;;;;;;4229159;27;20209;-70
2022/11/01 00:10:32;;;;;;;10.50;5.37;;;10.50;99.90;;;;;;4244527;27;20653;-72
2022/11/01 00:12:32;;;;;;;8.50;5.50;;;10.50;99.90;;;;;;4229116;27;20626;-71
2022/11/01 00:14:33;;;;;;;10.20;5.10;;;10.40;99.90;;;;;;4245157;27;20575;-69
2022/11/01 00:16:34;;;;;;;8.87;5.43;;;10.40;99.90;;;;;;4230859;27;20181;-71
2022/11/01 00:18:34;;;;;;;9.57;5.60;;;10.40;99.90;;;;;;4244813;27;20269;-69
2022/11/01 00:20:35;;;;;;;10.17;5.13;;;10.50;99.90;;;;;;4230244;27;20200;-72
2022/11/01 00:22:36;;;;;;;8.23;4.63;;;10.50;99.90;;;;;;4243188;27;20246;-70
2022/11/01 00:24:37;;;;;;;11.50;6.00;;;10.40;99.90;;;;;;4230802;27;20288;-71
2022/11/01 00:26:37;;;;;;;11.23;5.27;;;10.50;99.90;;;;;;4244227;27;20185;-71
2022/11/01 00:28:38;;;;;;;8.53;5.07;;;10.50;99.90;;;;;;4231034;27;20202;-71
2022/11/01 00:30:40;;;;;;;7.97;4.57;;;10.50;99.90;;;;;;4243280;27;20242;-70
2022/11/01 00:32:41;;;;;;;9.00;4.80;;;10.50;99.90;;;;;;4231272;27;20205;-72
2022/11/01 00:34:41;;;;;;;7.40;4.60;;;10.50;99.90;;;;;;4224674;28;20273;-70
2022/11/01 00:36:42;;;;;;;7.33;3.97;;;10.50;99.90;;;;;;4231861;27;20182;-71
2022/11/01 00:38:43;;;;;;;6.93;4.80;;;10.60;99.90;;;;;;4258999;27;20189;-70
2022/11/01 00:40:44;;;;;;;8.07;4.70;;;10.60;99.90;;;;;;4249797;27;20173;-71
2022/11/01 00:42:45;;;;;;;10.47;4.10;;;10.60;99.90;;;;;;4230543;27;20189;-70
2022/11/01 00:44:46;;;;;;;6.23;4.00;;;10.60;99.90;;;;;;4229622;28;20221;-71
2022/11/01 00:46:46;;;;;;;6.83;3.97;;;10.60;99.90;;;;;;4229851;28;20203;-71
2022/11/01 00:48:47;;;;;;;5.97;4.23;;;10.60;99.90;;;;;;4227680;28;20213;-69
2022/11/01 00:50:48;;;;;;;7.33;3.97;;;10.50;99.90;;;;;;4228999;28;20181;-69
2022/11/01 00:52:48;;;;;;;9.10;4.40;;;10.50;99.90;;;;;;4229638;28;20201;-70
2022/11/01 00:54:49;;;;;;;6.80;4.00;;;10.50;99.90;;;;;;4229347;27;20174;-70
2022/11/01 00:56:49;;;;;;;8.37;3.27;;;10.60;99.90;;;;;;4229229;28;20692;-69
2022/11/01 00:58:50;;;;;;;6.70;2.50;;;10.70;99.90;;;;;;4229922;28;20589;-70
2022/11/01 01:00:51;;;;;;;5.30;2.50;;;11.00;99.90;;;;;;4228543;28;20182;-69
2022/11/01 01:02:51;;;;;;;6.87;2.67;;;11.20;99.50;;;;;;4229368;28;20257;-70
2022/11/01 01:04:53;;;;;;;8.40;2.67;;;11.40;98.10;;;;;;4229375;28;20862;-70
2022/11/01 01:06:54;;;;;;;5.53;3.07;;;11.70;94.50;;;;;;4229102;28;20562;-70
2022/11/01 01:08:59;;;;;;;4.93;2.60;;;11.90;92.40;;;;;;4229070;28;20368;-70
2022/11/01 01:10:59;;;;;;;4.70;2.97;;;12.20;92.60;;;;;;4227292;28;20309;-70
2022/11/01 01:13:00;;;;;;;4.30;2.60;;;12.40;92.70;;;;;;4228944;28;20641;-70
2022/11/01 01:15:01;;;;;;;7.90;3.00;;;12.50;93.80;;;;;;4228938;28;20186;-70
2022/11/01 01:17:02;;;;;;;7.50;3.23;;;12.50;95.00;;;;;;4227740;28;20183;-69
2022/11/01 01:19:03;;;;;;;5.03;3.40;;;12.40;95.00;;;;;;4227994;28;20197;-69
2022/11/01 01:21:04;;;;;;;8.00;3.50;;;12.20;95.40;;;;;;4227175;28;20186;-70
2022/11/01 01:23:05;;;;;;;4.80;3.07;;;12.10;96.00;;;;;;4229017;28;20186;-70
2022/11/01 01:25:07;;;;;;;10.03;3.90;;;12.10;96.30;;;;;;4224469;28;20209;-70
2022/11/01 01:27:08;;;;;;;8.63;2.50;;;11.90;97.00;;;;;;4229243;28;20190;-70
2022/11/01 01:29:08;;;;;;;5.67;3.03;;;12.00;92.70;;;;;;4228755;28;20194;-70
2022/11/01 01:31:09;;;;;;;6.43;2.53;;;12.10;94.30;;;;;;4228807;28;20178;-69
2022/11/01 01:33:10;;;;;;;5.27;2.90;;;12.40;91.00;;;;;;4244884;28;20197;-69
2022/11/01 01:35:10;;;;;;;6.57;2.40;;;12.60;90.90;;;;;;4229007;28;20205;-69
2022/11/01 01:37:14;;;;;;;7.17;2.50;;;12.70;90.20;;;;;;4229499;28;20576;-69
2022/11/01 01:39:14;;;;;;;5.23;2.57;;;13.10;85.90;;;;;;4228992;28;20253;-69
2022/11/01 01:43:42;;;;;;;10.97;3.00;;;13.60;80.60;;;;;;4228893;28;20205;-70
2022/11/01 01:45:43;;;;;;;10.37;3.43;;;13.80;81.00;;;;;;4228442;28;20277;-69
2022/11/01 01:47:48;;;;;;;6.40;2.80;;;13.80;84.60;;;;;;4231041;28;20214;-70
2022/11/01 01:49:54;;;;;;;8.03;2.77;;;13.70;82.50;;;;;;4231163;28;20197;-69
2022/11/01 01:51:55;;;;;;;7.23;2.50;;;13.60;84.30;;;;;;4215292;28;20244;-69
2022/11/01 01:53:57;;;;;;;5.03;2.83;;;13.70;80.30;;;;;;4234198;28;20178;-70
2022/11/01 01:56:07;;;;;;;6.50;2.57;;;13.70;85.90;;;;;;4232575;28;20249;-70
2022/11/01 01:58:10;;;;;;;6.10;3.10;;;13.50;81.20;;;;;;4248004;27;20193;-70
2022/11/01 02:00:12;;;;;;;6.73;3.30;;;13.40;88.50;;;;;;4230670;28;20182;-70
2022/11/01 02:02:13;;;;;;;5.37;3.00;;;12.80;89.00;;;;;;4248034;27;20189;-70
2022/11/01 02:04:26;;;;;;;5.27;2.27;;;12.70;88.60;;;;;;4248197;27;20205;-70
2022/11/01 02:06:27;;;;;;;6.50;2.60;;;12.80;85.60;;;;;;4231184;28;20584;-70
2022/11/01 02:08:28;;;;;;;7.20;2.83;;;13.00;85.60;;;;;;4232456;28;20208;-70
2022/11/01 02:10:30;;;;;;;8.33;2.97;;;13.10;82.70;;;;;;4231710;28;20170;-70
2022/11/01 02:12:35;;;;;;;7.57;3.10;;;13.30;81.10;;;;;;4247909;27;20233;-70
2022/11/01 02:14:36;;;;;;;8.80;2.90;;;13.60;79.70;;;;;;4232337;28;20206;-70
2022/11/01 02:16:57;;;;;;;6.37;2.77;;;13.60;79.30;;;;;;4248122;27;20174;-70
2022/11/01 02:19:58;;;;;;;5.90;2.40;;;13.80;80.30;;;;;;4231319;28;20209;-70
2022/11/01 02:22:13;;;;;;;8.57;2.50;;;13.90;81.50;;;;;;4231917;28;20173;-70
2022/11/01 02:24:43;;;;;;;7.57;2.70;;;13.90;82.10;;;;;;4247266;27;20213;-70
2022/11/01 02:27:20;;;;;;;6.23;2.40;;;13.90;82.30;;;;;;4232153;28;20186;-70
2022/11/01 02:29:56;;;;;;;7.00;2.77;;;13.90;83.30;;;;;;4231821;28;20200;-70
2022/11/01 02:32:19;;;;;;;6.83;2.60;;;14.10;86.10;;;;;;4224269;28;20295;-70
2022/11/01 02:34:31;;;;;;;9.20;2.80;;;14.20;86.30;;;;;;4247626;27;20169;-69
2022/11/01 02:36:50;;;;;;;5.70;2.87;;;14.30;86.50;;;;;;4247701;27;20196;-70
2022/11/01 02:39:00;;;;;;;12.63;3.63;;;14.40;86.20;;;;;;4252209;27;20203;-69
2022/11/01 02:41:10;;;;;;;6.20;2.80;;;14.40;86.50;;;;;;4217404;28;20530;-70
2022/11/01 02:43:38;;;;;;;9.03;5.27;;;14.50;87.20;;;;;;4230997;28;20177;-69
2022/11/01 02:45:46;;;;;;;11.93;3.03;;;14.40;87.40;;;;;;4213959;28;20211;-70
2022/11/01 02:47:47;;;;;;;8.13;4.23;;;14.30;87.90;;;;;;4231074;28;20627;-70
2022/11/01 02:49:53;;;;;;;12.63;3.53;;;14.20;88.60;;;;;;4231973;28;20174;-70
2022/11/01 02:51:55;;;;;;;6.00;2.97;;;14.20;89.20;;;;;;4229815;28;20231;-69
2022/11/01 02:54:06;;;;;;;19.07;17.70;;;14.20;89.40;;;;;;4230533;28;20212;-69
2022/11/01 02:56:10;;;;;;;6.97;2.40;;;14.20;90.30;;;;;;4230211;28;20219;-69
2022/11/01 02:58:23;;;;;;;5.97;3.03;;;14.20;90.50;;;;;;4229902;28;20202;-69
2022/11/01 03:00:33;;;;;;;3.70;3.00;;;14.20;90.80;;;;;;4229891;28;20198;-69
2022/11/01 03:02:43;;;;;;;4.23;3.50;;;14.10;91.30;;;;;;4231306;28;20174;-69
2022/11/01 03:04:46;;;;;;;4.47;3.53;;;14.10;91.30;;;;;;4230290;28;20256;-69
2022/11/01 03:06:55;;;;;;;4.47;2.17;;;14.10;91.10;;;;;;4229959;28;20256;-69
2022/11/01 03:09:01;;;;;;;3.90;2.17;;;14.10;91.30;;;;;;4231366;28;20193;-69
2022/11/01 03:11:15;;;;;;;7.57;6.97;;;14.10;91.10;;;;;;4229761;28;20186;-69
2022/11/01 03:13:48;;;;;;;8.60;7.93;;;14.00;91.40;;;;;;4247027;27;20235;-69
2022/11/01 03:16:02;;;;;;;6.00;5.50;;;14.00;91.60;;;;;;4247084;27;20169;-70
2022/11/01 03:18:28;;;;;;;6.30;3.90;;;13.90;91.90;;;;;;4230042;28;20205;-69
2022/11/01 03:20:47;;;;;;;4.27;3.87;;;13.90;92.10;;;;;;4212486;28;20235;-69
2022/11/01 03:22:57;;;;;;;3.53;2.77;;;13.90;92.30;;;;;;4230012;28;20256;-69
2022/11/01 03:25:39;;;;;;;2.77;1.53;;;13.90;92.40;;;;;;4227410;28;20233;-69
2022/11/01 03:27:43;;;;;;;4.93;4.57;;;13.80;92.50;;;;;;4223977;28;20202;-69
2022/11/01 03:29:55;;;;;;;3.23;2.23;;;13.80;92.60;;;;;;4212666;28;20183;-69
2022/11/01 03:31:57;;;;;;;1.47;1.10;;;13.80;92.90;;;;;;4228861;28;20158;-69
2022/11/01 03:34:03;;;;;;;5.10;2.43;;;13.80;92.80;;;;;;4230555;28;20788;-69
2022/11/01 03:36:09;;;;;;;2.33;1.10;;;13.80;92.80;;;;;;4229370;28;20159;-69
2022/11/01 03:38:17;;;;;;;4.10;3.00;;;13.80;93.20;;;;;;4229710;28;20205;-69
2022/11/01 03:40:18;;;;;;;13.20;12.50;;;13.80;92.90;;;;;;4229068;28;20169;-69
2022/11/01 03:42:21;;;;;;;1.97;1.23;;;13.80;93.00;;;;;;4225096;28;20641;-69
2022/11/01 03:44:23;;;;;;;1.47;1.33;;;13.80;93.10;;;;;;4228870;28;20217;-69
2022/11/01 03:46:25;;;;;;;7.60;7.17;;;13.80;93.30;;;;;;4229501;28;20179;-69
2022/11/01 03:48:25;;;;;;;2.93;2.67;;;13.80;93.50;;;;;;4230915;28;20194;-69
2022/11/01 03:50:27;;;;;;;1.70;1.10;;;13.80;93.80;;;;;;4230309;28;20185;-69
2022/11/01 03:52:28;;;;;;;2.20;0.90;;;13.80;94.00;;;;;;4229454;28;20181;-69
2022/11/01 03:54:29;;;;;;;1.30;1.03;;;13.70;94.00;;;;;;4230641;28;20276;-69
2022/11/01 03:56:29;;;;;;;3.10;1.63;;;13.80;94.40;;;;;;4230285;28;20182;-69
2022/11/01 03:58:43;;;;;;;1.33;1.23;;;13.80;94.20;;;;;;4227636;28;20619;-69
2022/11/01 04:00:45;;;;;;;2.03;1.93;;;13.80;94.60;;;;;;4226456;28;20182;-69
2022/11/01 04:02:48;;;;;;;1.63;1.40;;;13.70;94.70;;;;;;4230433;28;20198;-70
2022/11/01 04:04:48;;;;;;;1.67;1.33;;;13.70;94.80;;;;;;4228845;28;20264;-69
2022/11/01 04:06:50;;;;;;;14.47;13.67;;;13.70;95.10;;;;;;4230316;28;20645;-68
2022/11/01 04:08:51;;;;;;;11.63;11.03;;;13.70;95.20;;;;;;4229200;27;20194;-68
2022/11/01 04:10:52;;;;;;;1.57;1.40;;;13.70;95.40;;;;;;4245480;27;20181;-69
2022/11/01 04:12:53;;;;;;;13.23;12.43;;;13.80;95.60;;;;;;4230179;27;20175;-68
2022/11/01 04:21:50;;;;;;;12.50;11.90;;;13.70;96.90;;;;;;4229645;28;20208;-69
2022/11/01 04:23:51;;;;;;;10.63;9.93;;;13.70;97.20;;;;;;4230001;28;20190;-68
2022/11/01 04:25:52;;;;;;;75.03;71.17;;;13.60;98.30;;;;;;4246027;27;20166;-68
2022/11/01 04:27:55;;;;;;;15.70;14.77;;;13.40;99.20;;;;;;4230316;28;20574;-69
2022/11/01 04:29:56;;;;;;;1.33;1.00;;;13.30;99.90;;;;;;4230292;28;20202;-70
2022/11/01 04:31:56;;;;;;;16.53;15.63;;;13.20;99.90;;;;;;4229461;28;20241;-69
2022/11/01 04:33:58;;;;;;;117.87;111.63;;;13.20;99.90;;;;;;4245872;27;20178;-69
2022/11/01 04:36:05;;;;;;;10.27;9.57;;;13.00;99.90;;;;;;4245632;27;20224;-69
2022/11/01 04:38:07;;;;;;;8.90;8.43;;;13.00;99.90;;;;;;4228679;28;20239;-69
2022/11/01 04:40:09;;;;;;;15.07;14.27;;;13.00;99.90;;;;;;4237205;28;20649;-70
2022/11/01 04:42:09;;;;;;;67.70;64.00;;;12.90;99.90;;;;;;4236528;28;20548;-69
2022/11/01 04:44:10;;;;;;;1.73;1.63;;;12.90;99.90;;;;;;4229311;28;20225;-70
2022/11/01 04:46:11;;;;;;;24.87;23.67;;;12.80;99.90;;;;;;4228507;28;20179;-70
2022/11/01 04:48:15;;;;;;;25.47;24.10;;;12.80;99.90;;;;;;4228919;28;20622;-70
2022/11/01 04:50:20;;;;;;;10.77;10.17;;;12.70;99.90;;;;;;4228671;28;20262;-70
2022/11/01 04:52:21;;;;;;;97.30;91.77;;;12.90;99.90;;;;;;4228380;28;20181;-69
2022/11/01 04:54:22;;;;;;;10.57;10.07;;;12.70;99.90;;;;;;4229525;28;20189;-70
2022/11/01 04:56:22;;;;;;;4.87;4.63;;;12.70;99.90;;;;;;4229888;28;20182;-70
2022/11/01 04:58:23;;;;;;;3.93;3.70;;;12.70;99.90;;;;;;4228779;28;20202;-70
2022/11/01 05:00:25;;;;;;;34.93;33.10;;;12.70;99.90;;;;;;4229002;28;20224;-70
2022/11/01 05:02:25;;;;;;;31.87;30.03;;;12.70;99.90;;;;;;4228129;28;20178;-70
2022/11/01 05:04:26;;;;;;;81.33;77.20;;;12.60;99.90;;;;;;4229177;28;20198;-70
2022/11/01 05:06:28;;;;;;;1.80;1.70;;;12.60;99.90;;;;;;4228072;28;20171;-70
2022/11/01 05:08:29;;;;;;;19.53;18.43;;;12.60;99.90;;;;;;4228123;28;20205;-70
2022/11/01 05:10:30;;;;;;;23.10;21.93;;;12.50;99.90;;;;;;4228670;28;20953;-70
2022/11/01 05:12:31;;;;;;;64.27;61.13;;;12.50;99.90;;;;;;4229364;28;20617;-71
2022/11/01 05:14:31;;;;;;;1.77;1.40;;;12.60;99.90;;;;;;4229520;28;20227;-70
2022/11/01 05:16:32;;;;;;;12.27;11.63;;;12.50;99.90;;;;;;4227393;28;20238;-70
2022/11/01 05:18:33;;;;;;;22.90;21.63;;;12.50;99.90;;;;;;4227670;28;20202;-70
2022/11/01 05:20:33;;;;;;;1.43;0.90;;;12.50;99.90;;;;;;4228410;28;20179;-70
2022/11/01 05:22:34;;;;;;;0.77;0.70;;;12.50;99.90;;;;;;4229079;28;20696;-70
2022/11/01 05:24:35;;;;;;;1.43;1.33;;;12.60;99.90;;;;;;4229100;28;20217;-70
2022/11/01 05:26:35;;;;;;;2.27;2.13;;;12.60;99.90;;;;;;4229205;28;20174;-70
2022/11/01 05:28:36;;;;;;;5.03;4.73;;;12.70;99.90;;;;;;4244878;28;20197;-70
2022/11/01 05:30:37;;;;;;;9.37;8.80;;;12.60;99.90;;;;;;4227375;28;20227;-71
2022/11/01 05:32:38;;;;;;;4.33;4.13;;;12.50;99.90;;;;;;4227950;28;20205;-71
2022/11/01 05:34:38;;;;;;;1.37;1.30;;;12.40;99.90;;;;;;4229178;28;20649;-70
2022/11/01 05:36:39;;;;;;;1.17;1.07;;;12.40;99.90;;;;;;4244810;28;20207;-71
2022/11/01 05:38:39;;;;;;;30.57;29.17;;;12.40;99.90;;;;;;4227914;28;20198;-70
2022/11/01 05:40:40;;;;;;;16.77;15.90;;;12.40;99.90;;;;;;4227139;28;20178;-71
2022/11/01 05:42:41;;;;;;;13.80;13.13;;;12.40;99.90;;;;;;4229076;28;20189;-71
2022/11/01 05:44:41;;;;;;;8.67;8.27;;;12.40;99.90;;;;;;4229262;28;20213;-71
2022/11/01 05:46:42;;;;;;;2.10;2.00;;;12.30;99.90;;;;;;4229608;28;20174;-71
2022/11/01 05:48:43;;;;;;;10.10;9.67;;;12.40;99.90;;;;;;4229150;28;20695;-71
2022/11/01 05:50:45;;;;;;;2.93;2.83;;;12.40;99.90;;;;;;4228413;28;20182;-71
2022/11/01 05:52:46;;;;;;;3.17;3.07;;;12.30;99.90;;;;;;4244674;28;20744;-71
2022/11/01 05:54:47;;;;;;;8.77;8.37;;;12.30;99.90;;;;;;4228886;28;20185;-71
2022/11/01 05:56:47;;;;;;;9.63;9.23;;;12.40;99.90;;;;;;4228985;28;20232;-71
2022/11/01 05:58:48;;;;;;;0.80;0.80;;;12.40;99.90;;;;;;4243313;28;20302;-70
2022/11/01 06:00:49;;;;;;;2.47;2.37;;;12.30;99.90;;;;;;4241719;28;20182;-71
2022/11/01 06:02:49;;;;;;;18.70;17.87;;;12.30;99.90;;;;;;4228814;28;20178;-70
2022/11/01 06:04:50;;;;;;;17.30;16.50;;;12.30;99.90;;;;;;4245644;28;20205;-71
2022/11/01 06:06:51;;;;;;;7.90;7.50;;;12.20;99.90;;;;;;4244939;27;20177;-71
2022/11/01 06:08:51;;;;;;;2.43;2.03;;;12.20;99.90;;;;;;4246070;27;20339;-71
2022/11/01 06:10:52;;;;;;;7.37;7.07;;;12.30;99.90;;;;;;4245521;28;20174;-71
2022/11/01 06:12:53;;;;;;;2.80;2.70;;;12.30;99.90;;;;;;4244271;28;20186;-71
2022/11/01 06:14:54;;;;;;;1.00;0.77;;;12.30;99.90;;;;;;4244322;28;20181;-71
2022/11/01 06:16:55;;;;;;;1.30;1.20;;;12.30;99.90;;;;;;4245515;28;20181;-70
2022/11/01 06:18:55;;;;;;;0.80;0.80;;;12.20;99.90;;;;;;4227228;28;20235;-71
2022/11/01 06:20:57;;;;;;;5.03;4.80;;;12.20;99.90;;;;;;4245037;28;20178;-72
2022/11/01 06:22:58;;;;;;;10.77;10.27;;;12.20;99.90;;;;;;4227456;28;20186;-70
2022/11/01 06:24:59;;;;;;;0.60;0.60;;;12.20;99.90;;;;;;4245466;27;20217;-70
2022/11/01 06:27:00;;;;;;;3.73;3.57;;;12.20;99.90;;;;;;4246021;28;20182;-71
2022/11/01 06:29:01;;;;;;;12.57;12.03;;;12.20;99.90;;;;;;4244257;28;20198;-71
2022/11/01 06:31:03;;;;;;;0.70;0.70;;;12.10;99.90;;;;;;4245108;27;20174;-71
2022/11/01 06:33:05;;;;;;;4.57;4.33;;;12.10;99.90;;;;;;4248392;27;20209;-71
2022/11/01 06:35:06;;;;;;;1.00;1.00;;;12.20;99.90;;;;;;4248480;27;20170;-71
2022/11/01 06:37:07;;;;;;;1.10;1.00;;;12.20;99.90;;;;;;4247083;27;20247;-71
2022/11/01 06:39:10;;;;;;;5.50;5.20;;;12.30;99.90;;;;;;4246922;27;20860;-70
2022/11/01 06:41:11;;;;;;;2.47;1.67;;;12.30;99.90;;;;;;4239312;28;20182;-71
2022/11/01 06:43:12;;;;;;;2.53;1.60;;;12.30;99.90;;;;;;4238050;28;20712;-71
2022/11/01 06:45:13;;;;;;;1.27;1.10;;;12.30;99.90;;;;;;4232551;28;20217;-71
2022/11/01 06:47:13;;;;;;;1.27;0.60;;;12.20;99.90;;;;;;4230583;28;20227;-71
2022/11/01 06:49:14;;;;;;;7.87;7.53;;;12.30;99.90;;;;;;4231833;28;20202;-71
2022/11/01 06:51:15;;;;;;;9.60;9.20;;;12.30;99.90;;;;;;4229635;28;20182;-70
2022/11/01 06:53:15;;;;;;;0.70;0.70;;;12.40;99.90;;;;;;4231785;28;20175;-72
2022/11/01 06:55:16;;;;;;;0.60;0.60;;;12.50;99.90;;;;;;4230309;28;20179;-71
2022/11/01 06:57:17;;;;;;;1.30;1.20;;;12.50;99.90;;;;;;4230142;28;20187;-71
2022/11/01 06:59:18;;;;;;;0.70;0.70;;;12.60;99.90;;;;;;4230200;28;20851;-71
2022/11/01 07:01:20;;;;;;;0.90;0.90;;;12.60;99.90;;;;;;4230803;28;20885;-71
2022/11/01 07:03:21;;;;;;;3.60;2.30;;;12.60;99.90;;;;;;4230040;28;20201;-71
2022/11/01 07:05:22;;;;;;;1.20;1.10;;;12.60;99.90;;;;;;4231211;28;20209;-71
2022/11/01 07:07:22;;;;;;;0.70;0.70;;;12.70;99.90;;;;;;4231107;28;20187;-71
2022/11/01 07:09:23;;;;;;;0.87;0.80;;;12.80;99.90;;;;;;4230283;28;20180;-71
2022/11/01 07:11:24;;;;;;;0.73;0.73;;;12.80;99.90;;;;;;4230588;28;20174;-70
2022/11/01 07:13:25;;;;;;;1.07;0.97;;;12.80;99.90;;;;;;4229800;28;20186;-71
2022/11/01 07:15:27;;;;;;;1.37;0.90;;;12.80;99.90;;;;;;4219986;28;20187;-70
2022/11/01 07:17:28;;;;;;;0.70;0.70;;;12.90;99.90;;;;;;4214107;28;20179;-70
2022/11/01 07:19:28;;;;;;;0.70;0.67;;;12.90;99.90;;;;;;4214293;28;20218;-70
2022/11/01 07:21:29;;;;;;;1.30;1.17;;;12.90;99.90;;;;;;4213483;28;20187;-71
2022/11/01 07:23:30;;;;;;;2.17;2.10;;;13.00;99.90;;;;;;4212718;28;20191;-70
2022/11/01 07:25:32;;;;;;;1.23;1.13;;;13.00;99.80;;;;;;4212720;28;20891;-70
2022/11/01 07:27:35;;;;;;;0.80;0.80;;;13.00;99.60;;;;;;4212572;28;20179;-71
2022/11/01 07:29:38;;;;;;;0.70;0.70;;;13.00;99.60;;;;;;4212757;28;20716;-70
2022/11/01 07:31:39;;;;;;;0.80;0.80;;;13.00;98.90;;;;;;4212967;28;20190;-70
2022/11/01 07:33:40;;;;;;;0.73;0.73;;;13.10;98.50;;;;;;4229266;28;20183;-70
2022/11/01 07:35:41;;;;;;;1.00;0.90;;;13.10;97.70;;;;;;4213877;28;20658;-70
2022/11/01 07:37:41;;;;;;;2.87;2.73;;;13.10;97.30;;;;;;4213725;28;20669;-71
2022/11/01 07:39:42;;;;;;;1.93;1.83;;;13.10;95.90;;;;;;4213873;28;20187;-70
2022/11/01 07:41:43;;;;;;;1.17;0.73;;;13.10;96.40;;;;;;4213157;28;20183;-71
2022/11/01 07:43:43;;;;;;;0.97;0.63;;;13.10;95.50;;;;;;4213825;28;20206;-70
2022/11/01 07:45:45;;;;;;;1.43;1.33;;;13.20;95.70;;;;;;4212516;28;20199;-70
2022/11/01 07:47:46;;;;;;;0.93;0.90;;;13.30;96.00;;;;;;4212487;28;20265;-70
2022/11/01 07:49:47;;;;;;;2.50;2.40;;;13.10;94.10;;;;;;4213621;28;20175;-70
2022/11/01 07:51:47;;;;;;;1.37;1.33;;;13.10;94.00;;;;;;4213073;28;20236;-70
2022/11/01 07:53:48;;;;;;;4.30;4.10;;;13.10;93.30;;;;;;4213423;28;20593;-70
2022/11/01 07:55:48;;;;;;;3.03;2.93;;;13.20;92.90;;;;;;4213494;28;20547;-70
2022/11/01 07:57:49;;;;;;;3.20;3.03;;;13.20;93.00;;;;;;4212550;28;20198;-70
2022/11/01 07:59:50;;;;;;;0.50;0.50;;;13.30;93.00;;;;;;4212307;28;20182;-70
2022/11/01 08:01:50;;;;;;;1.67;0.60;;;13.30;93.10;;;;;;4212909;28;20205;-70
2022/11/01 08:03:51;;;;;;;0.70;0.70;;;13.40;93.20;;;;;;4212164;28;20202;-70
2022/11/01 08:05:52;;;;;;;1.13;0.63;;;13.40;93.00;;;;;;4213157;28;20309;-70
2022/11/01 08:07:53;;;;;;;6.60;6.27;;;13.40;92.90;;;;;;4213166;28;20895;-70
2022/11/01 08:09:53;;;;;;;1.87;1.77;;;13.40;92.80;;;;;;4211839;28;20183;-70
2022/11/01 08:11:54;;;;;;;0.63;0.63;;;13.30;93.20;;;;;;4211277;28;20225;-70
2022/11/01 08:13:54;;;;;;;0.80;0.60;;;13.30;93.50;;;;;;4213196;28;20171;-70
2022/11/01 08:15:59;;;;;;;0.60;0.60;;;13.40;93.90;;;;;;4211830;28;20555;-70
2022/11/01 08:18:00;;;;;;;0.77;0.67;;;13.50;93.70;;;;;;4212083;28;20257;-70
2022/11/01 08:20:01;;;;;;;1.20;1.10;;;13.50;93.50;;;;;;4213085;28;20698;-70
2022/11/01 08:22:02;;;;;;;1.37;0.90;;;13.40;93.60;;;;;;4211169;28;20199;-70
2022/11/01 08:24:03;;;;;;;1.33;1.23;;;13.40;93.40;;;;;;4211576;28;20195;-70
2022/11/01 08:26:05;;;;;;;0.97;0.90;;;13.40;93.40;;;;;;4211638;28;20255;-70
2022/11/01 08:28:18;;;;;;;1.00;0.90;;;13.40;93.70;;;;;;4212931;28;20199;-70
2022/11/01 08:30:19;;;;;;;0.97;0.90;;;13.40;93.60;;;;;;4211159;28;20277;-70
2022/11/01 08:32:20;;;;;;;2.20;1.03;;;13.40;93.50;;;;;;4211170;28;20220;-70
2022/11/01 08:34:21;;;;;;;0.77;0.77;;;13.50;93.20;;;;;;4211558;28;20818;-70
2022/11/01 08:36:22;;;;;;;0.83;0.80;;;13.50;93.40;;;;;;4212815;28;20195;-70
2022/11/01 08:38:23;;;;;;;2.73;2.63;;;13.60;93.00;;;;;;4212922;28;20631;-70
2022/11/01 08:40:25;;;;;;;1.33;1.30;;;13.50;92.90;;;;;;4227919;28;20182;-70
2022/11/01 08:42:25;;;;;;;1.50;1.40;;;13.50;93.40;;;;;;4221634;28;20189;-70
2022/11/01 08:44:26;;;;;;;3.97;3.77;;;13.60;93.50;;;;;;4220831;28;20201;-70
2022/11/01 08:46:26;;;;;;;4.17;3.87;;;13.90;92.70;;;;;;4213994;28;20190;-70
2022/11/01 08:48:27;;;;;;;1.33;1.23;;;14.10;92.60;;;;;;4216277;28;20202;-70
2022/11/01 08:50:28;;;;;;;1.53;0.70;;;14.30;91.60;;;;;;4227636;28;20243;-70
2022/11/01 08:52:29;;;;;;;1.60;1.50;;;14.70;91.30;;;;;;4229891;28;20170;-70
2022/11/01 08:54:29;;;;;;;0.67;0.60;;;14.90;90.20;;;;;;4229321;28;20194;-70
2022/11/01 08:56:30;;;;;;;0.70;0.70;;;14.90;90.30;;;;;;4228371;28;20221;-70
2022/11/01 08:58:31;;;;;;;1.23;0.70;;;14.90;90.00;;;;;;4226002;28;20705;-70
2022/11/01 09:00:32;;;;;;;0.60;0.60;;;14.90;90.60;;;;;;4211180;28;20201;-70
2022/11/01 09:02:33;;;;;;;2.27;0.80;;;14.90;90.70;;;;;;4212934;28;20816;-70
2022/11/01 09:04:34;;;;;;;0.70;0.70;;;14.90;90.50;;;;;;4212700;28;20195;-70
2022/11/01 09:06:34;;;;;;;3.23;3.03;;;14.90;90.60;;;;;;4216927;28;20762;-68
2022/11/01 09:08:35;;;;;;;1.20;1.10;;;15.00;90.80;;;;;;4219474;28;20716;-68
2022/11/01 09:10:36;;;;;;;1.37;1.10;;;15.20;90.60;;;;;;4220187;28;20175;-69
2022/11/01 09:12:37;;;;;;;16.73;15.93;;;15.50;90.40;;;;;;4220742;28;20170;-68
2022/11/01 09:14:38;;;;;;;8.13;7.73;;;15.70;87.60;;;;;;4228126;28;20596;-69
2022/11/01 09:16:38;;;;;;;1.30;0.97;;;15.70;88.80;;;;;;4229286;28;20178;-69
2022/11/01 09:18:39;;;;;;;1.63;1.00;;;15.70;88.70;;;;;;4241455;27;20202;-69
2022/11/01 09:20:40;;;;;;;1.00;0.80;;;15.90;88.00;;;;;;4210420;28;20179;-69
2022/11/01 09:22:41;;;;;;;2.00;1.10;;;16.40;86.90;;;;;;4211172;28;20183;-69
2022/11/01 09:24:42;;;;;;;1.90;1.37;;;16.40;83.80;;;;;;4212138;28;20246;-69
2022/11/01 09:26:43;;;;;;;1.07;0.97;;;16.50;85.30;;;;;;4212245;28;20664;-69
2022/11/01 09:28:44;;;;;;;5.50;5.20;;;16.60;84.40;;;;;;4211022;28;20195;-69
2022/11/01 09:30:45;;;;;;;13.10;12.40;;;16.30;84.00;;;;;;4211625;28;20209;-69
2022/11/01 09:32:45;;;;;;;1.87;1.50;;;15.90;86.30;;;;;;4211066;28;20178;-69
2022/11/01 09:34:47;;;;;;;6.47;6.10;;;15.70;87.40;;;;;;4212175;28;20206;-71
2022/11/01 09:36:48;;;;;;;1.57;0.80;;;15.70;88.00;;;;;;4210856;28;20183;-71
2022/11/01 09:38:49;;;;;;;4.50;1.80;;;15.70;88.10;;;;;;4212486;28;20218;-71
2022/11/01 09:41:23;;;;;;;4.97;1.83;;;15.50;88.70;;;;;;4210115;28;20179;-71
2022/11/01 09:43:28;;;;;;;4.83;2.73;;;15.40;90.00;;;;;;4205205;28;20225;-72
2022/11/01 09:45:31;;;;;;;1.53;1.10;;;15.30;90.30;;;;;;4210642;28;20292;-71
2022/11/01 09:47:34;;;;;;;4.07;3.67;;;15.20;90.40;;;;;;4210571;28;20240;-71
2022/11/01 09:49:40;;;;;;;2.37;1.83;;;15.40;90.50;;;;;;4212008;28;20262;-71
2022/11/01 09:51:40;;;;;;;1.43;0.90;;;15.50;90.00;;;;;;4209953;28;20255;-71
2022/11/01 09:53:41;;;;;;;5.40;5.00;;;15.50;90.00;;;;;;4211873;28;20171;-71
2022/11/01 09:56:11;;;;;;;2.77;1.10;;;15.40;88.90;;;;;;4210643;28;20256;-71
2022/11/01 09:58:27;;;;;;;3.30;1.03;;;15.40;90.30;;;;;;4203454;28;20229;-70
2022/11/01 10:00:37;;;;;;;11.27;10.67;;;15.60;90.10;;;;;;4211244;28;20171;-70
2022/11/01 10:03:14;;;;;;;5.13;1.50;;;15.70;89.40;;;;;;4210474;28;20221;-70
2022/11/01 10:05:43;;;;;;;2.80;1.10;;;16.00;87.50;;;;;;4211601;28;20193;-70
2022/11/01 10:08:13;;;;;;;1.80;1.17;;;16.10;86.80;;;;;;4212926;28;20222;-70
2022/11/01 10:11:06;;;;;;;1.67;1.30;;;16.20;85.50;;;;;;4213205;28;20174;-70
2022/11/01 10:13:31;;;;;;;5.43;2.00;;;16.40;84.90;;;;;;4213588;28;20213;-70
2022/11/01 10:15:52;;;;;;;3.00;1.40;;;16.90;81.30;;;;;;4215058;28;20167;-70
2022/11/01 10:17:54;;;;;;;4.90;1.40;;;17.00;80.20;;;;;;4214856;28;20199;-70
2022/11/01 10:19:55;;;;;;;1.53;1.40;;;16.40;81.00;;;;;;4213437;28;20213;-70
2022/11/01 10:22:31;;;;;;;3.03;1.30;;;16.40;83.60;;;;;;4212888;28;20186;-70
2022/11/01 10:24:51;;;;;;;2.77;1.67;;;16.60;82.60;;;;;;4201102;28;20237;-71
2022/11/01 10:27:29;;;;;;;2.20;1.00;;;16.80;81.90;;;;;;4213412;28;20183;-70
2022/11/01 10:30:08;;;;;;;3.10;1.20;;;16.80;80.90;;;;;;4213871;28;20676;-70
2022/11/01 10:32:34;;;;;;;3.03;1.10;;;17.10;78.60;;;;;;4204193;28;20195;-70
2022/11/01 10:34:38;;;;;;;2.90;1.70;;;16.70;77.80;;;;;;4215015;28;20274;-70
2022/11/01 10:36:43;;;;;;;2.20;1.30;;;16.70;79.40;;;;;;4213336;28;20183;-71
2022/11/01 10:39:15;;;;;;;2.33;1.17;;;16.60;79.30;;;;;;4213392;28;20703;-71
2022/11/01 10:41:30;;;;;;;3.70;1.43;;;16.80;79.90;;;;;;4227718;28;20568;-68
2022/11/01 10:43:36;;;;;;;3.87;1.57;;;16.80;77.90;;;;;;4236887;28;20247;-68
2022/11/01 10:45:37;;;;;;;2.33;1.27;;;16.50;78.60;;;;;;4234746;28;20669;-68
2022/11/01 10:47:37;;;;;;;1.77;1.00;;;16.20;79.60;;;;;;4230734;28;20236;-71
2022/11/01 10:49:46;;;;;;;3.17;2.97;;;16.00;81.50;;;;;;4222047;27;20668;-70
2022/11/01 10:51:51;;;;;;;3.63;1.37;;;16.00;81.50;;;;;;4245545;27;20205;-71
2022/11/01 10:54:02;;;;;;;3.47;1.30;;;16.00;81.70;;;;;;4230120;27;20251;-69